sensor_id;sensor_type;location;lat;lon;timestamp;P1;durP1;ratioP1;P2;durP2;ratioP2
15385;SDS011;7791;47.246;9.648;2023-07-30T00:02:29;2.47;;;1.63;;
15385;SDS011;7791;47.246;9.648;2023-07-30T00:05:02;2.30;;;1.60;;
15385;SDS011;7791;47.246;9.648;2023-07-30T00:07:39;3.90;;;1.70;;
15385;SDS011;7791;47.246;9.648;2023-07-30T00:10:20;2.67;;;1.60;;
15385;SDS011;7791;47.246;9.648;2023-07-30T00:13:05;3.50;;;2.10;;
15385;SDS011;7791;47.246;9.648;2023-07-30T00:15:47;3.40;;;1.60;;
15385;SDS011;7791;47.246;9.648;2023-07-30T00:18:45;2.80;;;1.57;;
15385;SDS011;7791;47.246;9.648;2023-07-30T00:22:05;3.80;;;1.53;;
15385;SDS011;7791;47.246;9.648;2023-07-30T00:24:24;4.27;;;1.50;;
15385;SDS011;7791;47.246;9.648;2023-07-30T00:27:01;4.80;;;1.60;;
15385;SDS011;7791;47.246;9.648;2023-07-30T00:29:39;2.27;;;1.63;;
15385;SDS011;7791;47.246;9.648;2023-07-30T00:32:21;1.63;;;1.40;;
15385;SDS011;7791;47.246;9.648;2023-07-30T00:34:55;2.67;;;1.50;;
15385;SDS011;7791;47.246;9.648;2023-07-30T00:37:28;4.40;;;1.70;;
15385;SDS011;7791;47.246;9.648;2023-07-30T00:40:08;3.13;;;1.60;;
15385;SDS011;7791;47.246;9.648;2023-07-30T00:42:57;4.77;;;1.87;;
15385;SDS011;7791;47.246;9.648;2023-07-30T00:48:51;1.40;;;1.30;;
15385;SDS011;7791;47.246;9.648;2023-07-30T00:51:24;1.80;;;1.30;;
15385;SDS011;7791;47.246;9.648;2023-07-30T00:53:59;1.53;;;1.30;;
15385;SDS011;7791;47.246;9.648;2023-07-30T00:56:49;1.83;;;1.57;;
15385;SDS011;7791;47.246;9.648;2023-07-30T00:59:26;4.03;;;1.80;;
15385;SDS011;7791;47.246;9.648;2023-07-30T01:02:17;3.07;;;2.40;;
15385;SDS011;7791;47.246;9.648;2023-07-30T01:05:06;2.97;;;2.13;;
15385;SDS011;7791;47.246;9.648;2023-07-30T01:07:41;3.30;;;2.10;;
15385;SDS011;7791;47.246;9.648;2023-07-30T01:10:14;3.93;;;2.23;;
15385;SDS011;7791;47.246;9.648;2023-07-30T01:12:59;3.70;;;2.20;;
15385;SDS011;7791;47.246;9.648;2023-07-30T01:15:36;3.10;;;2.30;;
15385;SDS011;7791;47.246;9.648;2023-07-30T01:18:12;3.80;;;2.80;;
15385;SDS011;7791;47.246;9.648;2023-07-30T01:20:57;4.03;;;2.67;;
15385;SDS011;7791;47.246;9.648;2023-07-30T01:23:33;2.73;;;2.33;;
15385;SDS011;7791;47.246;9.648;2023-07-30T01:26:19;2.77;;;2.00;;
15385;SDS011;7791;47.246;9.648;2023-07-30T01:29:03;3.33;;;1.80;;
15385;SDS011;7791;47.246;9.648;2023-07-30T01:31:43;3.97;;;1.80;;
15385;SDS011;7791;47.246;9.648;2023-07-30T01:34:23;3.67;;;1.90;;
15385;SDS011;7791;47.246;9.648;2023-07-30T01:39:56;3.73;;;1.83;;
15385;SDS011;7791;47.246;9.648;2023-07-30T01:42:33;2.50;;;1.60;;
15385;SDS011;7791;47.246;9.648;2023-07-30T01:45:22;2.33;;;1.70;;
15385;SDS011;7791;47.246;9.648;2023-07-30T01:48:01;1.87;;;1.50;;
15385;SDS011;7791;47.246;9.648;2023-07-30T01:50:43;1.70;;;1.53;;
15385;SDS011;7791;47.246;9.648;2023-07-30T01:53:22;4.23;;;1.43;;
15385;SDS011;7791;47.246;9.648;2023-07-30T02:01:42;2.33;;;1.70;;
15385;SDS011;7791;47.246;9.648;2023-07-30T02:10:40;2.77;;;1.60;;
15385;SDS011;7791;47.246;9.648;2023-07-30T02:13:23;2.47;;;1.63;;
15385;SDS011;7791;47.246;9.648;2023-07-30T02:16:15;3.37;;;2.03;;
15385;SDS011;7791;47.246;9.648;2023-07-30T02:21:46;2.87;;;1.87;;
15385;SDS011;7791;47.246;9.648;2023-07-30T02:24:17;3.97;;;2.10;;
15385;SDS011;7791;47.246;9.648;2023-07-30T02:27:12;2.10;;;1.67;;
15385;SDS011;7791;47.246;9.648;2023-07-30T02:32:56;2.93;;;1.67;;
15385;SDS011;7791;47.246;9.648;2023-07-30T02:35:41;3.03;;;2.00;;
15385;SDS011;7791;47.246;9.648;2023-07-30T02:38:15;10.23;;;6.07;;
15385;SDS011;7791;47.246;9.648;2023-07-30T02:41:03;6.53;;;3.30;;
15385;SDS011;7791;47.246;9.648;2023-07-30T02:43:46;5.90;;;2.40;;
15385;SDS011;7791;47.246;9.648;2023-07-30T02:46:27;4.10;;;2.43;;
15385;SDS011;7791;47.246;9.648;2023-07-30T02:49:07;4.27;;;2.20;;
15385;SDS011;7791;47.246;9.648;2023-07-30T02:51:53;4.17;;;2.00;;
15385;SDS011;7791;47.246;9.648;2023-07-30T02:54:32;4.13;;;2.03;;
15385;SDS011;7791;47.246;9.648;2023-07-30T02:57:14;3.17;;;2.20;;
15385;SDS011;7791;47.246;9.648;2023-07-30T03:00:05;2.80;;;1.80;;
15385;SDS011;7791;47.246;9.648;2023-07-30T03:02:37;5.50;;;2.10;;
15385;SDS011;7791;47.246;9.648;2023-07-30T03:05:16;3.83;;;2.10;;
15385;SDS011;7791;47.246;9.648;2023-07-30T03:10:50;3.73;;;2.13;;
15385;SDS011;7791;47.246;9.648;2023-07-30T03:13:22;5.83;;;1.90;;
15385;SDS011;7791;47.246;9.648;2023-07-30T03:16:02;3.00;;;1.80;;
15385;SDS011;7791;47.246;9.648;2023-07-30T03:18:47;1.97;;;1.50;;
15385;SDS011;7791;47.246;9.648;2023-07-30T03:21:23;2.90;;;1.67;;
15385;SDS011;7791;47.246;9.648;2023-07-30T03:24:10;4.40;;;2.03;;
15385;SDS011;7791;47.246;9.648;2023-07-30T03:26:56;2.27;;;1.60;;
15385;SDS011;7791;47.246;9.648;2023-07-30T03:29:43;2.47;;;1.63;;
15385;SDS011;7791;47.246;9.648;2023-07-30T03:35:36;1.87;;;1.37;;
15385;SDS011;7791;47.246;9.648;2023-07-30T03:38:08;2.97;;;1.70;;
15385;SDS011;7791;47.246;9.648;2023-07-30T03:40:44;2.43;;;1.73;;
15385;SDS011;7791;47.246;9.648;2023-07-30T03:46:17;2.27;;;1.50;;
15385;SDS011;7791;47.246;9.648;2023-07-30T03:48:49;2.00;;;1.70;;
15385;SDS011;7791;47.246;9.648;2023-07-30T03:54:44;3.23;;;2.00;;
15385;SDS011;7791;47.246;9.648;2023-07-30T03:57:30;4.13;;;1.87;;
15385;SDS011;7791;47.246;9.648;2023-07-30T04:00:21;2.20;;;1.90;;
15385;SDS011;7791;47.246;9.648;2023-07-30T04:09:01;2.43;;;1.93;;
15385;SDS011;7791;47.246;9.648;2023-07-30T04:11:44;2.20;;;1.60;;
15385;SDS011;7791;47.246;9.648;2023-07-30T04:14:22;3.37;;;1.80;;
15385;SDS011;7791;47.246;9.648;2023-07-30T04:16:54;2.80;;;2.00;;
15385;SDS011;7791;47.246;9.648;2023-07-30T04:19:39;3.10;;;1.67;;
15385;SDS011;7791;47.246;9.648;2023-07-30T04:22:42;2.00;;;1.80;;
15385;SDS011;7791;47.246;9.648;2023-07-30T04:25:23;2.27;;;1.77;;
15385;SDS011;7791;47.246;9.648;2023-07-30T04:28:09;7.47;;;1.97;;
15385;SDS011;7791;47.246;9.648;2023-07-30T04:30:44;4.50;;;1.87;;
15385;SDS011;7791;47.246;9.648;2023-07-30T04:33:22;2.37;;;1.90;;
15385;SDS011;7791;47.246;9.648;2023-07-30T04:35:54;4.03;;;2.07;;
15385;SDS011;7791;47.246;9.648;2023-07-30T04:38:39;3.47;;;2.03;;
15385;SDS011;7791;47.246;9.648;2023-07-30T04:41:20;4.37;;;1.90;;
15385;SDS011;7791;47.246;9.648;2023-07-30T04:44:05;2.53;;;2.00;;
15385;SDS011;7791;47.246;9.648;2023-07-30T04:46:40;3.83;;;1.90;;
15385;SDS011;7791;47.246;9.648;2023-07-30T04:49:25;2.40;;;1.77;;
15385;SDS011;7791;47.246;9.648;2023-07-30T04:52:05;2.17;;;1.90;;
15385;SDS011;7791;47.246;9.648;2023-07-30T04:54:45;4.60;;;2.03;;
15385;SDS011;7791;47.246;9.648;2023-07-30T05:00:40;1.83;;;1.60;;
15385;SDS011;7791;47.246;9.648;2023-07-30T05:03:34;4.10;;;1.77;;
15385;SDS011;7791;47.246;9.648;2023-07-30T05:06:12;3.03;;;1.70;;
15385;SDS011;7791;47.246;9.648;2023-07-30T05:08:48;3.10;;;1.80;;
15385;SDS011;7791;47.246;9.648;2023-07-30T05:11:27;3.90;;;1.70;;
15385;SDS011;7791;47.246;9.648;2023-07-30T05:14:06;3.10;;;1.70;;
15385;SDS011;7791;47.246;9.648;2023-07-30T05:16:41;2.07;;;1.60;;
15385;SDS011;7791;47.246;9.648;2023-07-30T05:19:06;4.03;;;1.90;;
15385;SDS011;7791;47.246;9.648;2023-07-30T05:21:37;2.70;;;1.70;;
15385;SDS011;7791;47.246;9.648;2023-07-30T05:24:13;2.73;;;1.70;;
15385;SDS011;7791;47.246;9.648;2023-07-30T05:26:46;2.73;;;1.60;;
15385;SDS011;7791;47.246;9.648;2023-07-30T05:35:02;5.03;;;1.73;;
15385;SDS011;7791;47.246;9.648;2023-07-30T05:37:35;2.80;;;1.90;;
15385;SDS011;7791;47.246;9.648;2023-07-30T05:40:28;2.30;;;1.80;;
15385;SDS011;7791;47.246;9.648;2023-07-30T05:43:17;2.40;;;1.80;;
15385;SDS011;7791;47.246;9.648;2023-07-30T05:46:01;3.17;;;1.97;;
15385;SDS011;7791;47.246;9.648;2023-07-30T05:48:34;2.33;;;1.67;;
15385;SDS011;7791;47.246;9.648;2023-07-30T05:51:09;2.80;;;2.10;;
15385;SDS011;7791;47.246;9.648;2023-07-30T05:53:55;2.37;;;1.70;;
15385;SDS011;7791;47.246;9.648;2023-07-30T05:56:41;2.93;;;1.70;;
15385;SDS011;7791;47.246;9.648;2023-07-30T05:59:33;2.67;;;1.67;;
15385;SDS011;7791;47.246;9.648;2023-07-30T06:05:04;3.47;;;1.90;;
15385;SDS011;7791;47.246;9.648;2023-07-30T06:07:40;3.73;;;2.10;;
15385;SDS011;7791;47.246;9.648;2023-07-30T06:10:16;2.40;;;1.90;;
15385;SDS011;7791;47.246;9.648;2023-07-30T06:15:36;3.27;;;1.90;;
15385;SDS011;7791;47.246;9.648;2023-07-30T06:18:08;2.80;;;2.07;;
15385;SDS011;7791;47.246;9.648;2023-07-30T06:23:33;4.13;;;1.77;;
15385;SDS011;7791;47.246;9.648;2023-07-30T06:26:19;3.90;;;1.83;;
15385;SDS011;7791;47.246;9.648;2023-07-30T06:29:05;3.47;;;1.73;;
15385;SDS011;7791;47.246;9.648;2023-07-30T06:31:46;4.87;;;1.77;;
15385;SDS011;7791;47.246;9.648;2023-07-30T06:34:28;2.60;;;1.77;;
15385;SDS011;7791;47.246;9.648;2023-07-30T06:37:17;2.33;;;1.70;;
15385;SDS011;7791;47.246;9.648;2023-07-30T06:39:58;2.87;;;1.57;;
15385;SDS011;7791;47.246;9.648;2023-07-30T06:42:30;1.83;;;1.50;;
15385;SDS011;7791;47.246;9.648;2023-07-30T06:45:18;2.00;;;1.40;;
15385;SDS011;7791;47.246;9.648;2023-07-30T06:47:57;2.43;;;1.50;;
15385;SDS011;7791;47.246;9.648;2023-07-30T06:50:42;2.00;;;1.30;;
15385;SDS011;7791;47.246;9.648;2023-07-30T06:56:14;2.17;;;1.60;;
15385;SDS011;7791;47.246;9.648;2023-07-30T06:58:50;1.87;;;1.37;;
15385;SDS011;7791;47.246;9.648;2023-07-30T07:01:35;2.03;;;1.40;;
15385;SDS011;7791;47.246;9.648;2023-07-30T07:04:07;1.93;;;1.40;;
15385;SDS011;7791;47.246;9.648;2023-07-30T07:12:39;1.60;;;1.50;;
15385;SDS011;7791;47.246;9.648;2023-07-30T07:15:18;2.30;;;1.80;;
15385;SDS011;7791;47.246;9.648;2023-07-30T07:18:09;2.13;;;1.60;;
15385;SDS011;7791;47.246;9.648;2023-07-30T07:20:54;2.53;;;1.57;;
15385;SDS011;7791;47.246;9.648;2023-07-30T07:23:43;3.90;;;2.67;;
15385;SDS011;7791;47.246;9.648;2023-07-30T07:29:26;4.13;;;2.70;;
15385;SDS011;7791;47.246;9.648;2023-07-30T07:32:11;3.57;;;2.17;;
15385;SDS011;7791;47.246;9.648;2023-07-30T07:34:47;2.43;;;1.67;;
15385;SDS011;7791;47.246;9.648;2023-07-30T07:37:26;2.30;;;1.80;;
15385;SDS011;7791;47.246;9.648;2023-07-30T07:39:59;3.57;;;2.50;;
15385;SDS011;7791;47.246;9.648;2023-07-30T07:42:31;3.37;;;1.83;;
15385;SDS011;7791;47.246;9.648;2023-07-30T07:45:10;3.27;;;1.93;;
15385;SDS011;7791;47.246;9.648;2023-07-30T07:47:56;3.23;;;2.00;;
15385;SDS011;7791;47.246;9.648;2023-07-30T07:50:39;3.43;;;1.67;;
15385;SDS011;7791;47.246;9.648;2023-07-30T07:53:24;2.03;;;1.67;;
15385;SDS011;7791;47.246;9.648;2023-07-30T07:56:00;1.80;;;1.53;;
15385;SDS011;7791;47.246;9.648;2023-07-30T07:58:30;3.67;;;1.90;;
15385;SDS011;7791;47.246;9.648;2023-07-30T08:01:18;2.07;;;1.77;;
15385;SDS011;7791;47.246;9.648;2023-07-30T08:04:11;2.90;;;1.50;;
15385;SDS011;7791;47.246;9.648;2023-07-30T08:06:54;4.13;;;2.20;;
15385;SDS011;7791;47.246;9.648;2023-07-30T08:09:30;2.07;;;1.77;;
15385;SDS011;7791;47.246;9.648;2023-07-30T08:12:02;2.07;;;1.57;;
15385;SDS011;7791;47.246;9.648;2023-07-30T08:14:47;2.77;;;1.50;;
15385;SDS011;7791;47.246;9.648;2023-07-30T08:17:17;2.47;;;1.47;;
15385;SDS011;7791;47.246;9.648;2023-07-30T08:20:00;1.83;;;1.50;;
15385;SDS011;7791;47.246;9.648;2023-07-30T08:22:42;2.83;;;1.60;;
15385;SDS011;7791;47.246;9.648;2023-07-30T08:25:15;1.73;;;1.27;;
15385;SDS011;7791;47.246;9.648;2023-07-30T08:27:51;1.23;;;1.02;;
15385;SDS011;7791;47.246;9.648;2023-07-30T08:30:34;3.20;;;1.40;;
15385;SDS011;7791;47.246;9.648;2023-07-30T08:33:28;1.60;;;1.30;;
15385;SDS011;7791;47.246;9.648;2023-07-30T08:36:08;1.60;;;1.10;;
15385;SDS011;7791;47.246;9.648;2023-07-30T08:41:51;2.78;;;1.42;;
15385;SDS011;7791;47.246;9.648;2023-07-30T08:44:37;1.40;;;1.30;;
15385;SDS011;7791;47.246;9.648;2023-07-30T08:47:06;2.05;;;1.38;;
15385;SDS011;7791;47.246;9.648;2023-07-30T08:49:54;1.50;;;1.30;;
15385;SDS011;7791;47.246;9.648;2023-07-30T08:52:32;2.05;;;1.30;;
15385;SDS011;7791;47.246;9.648;2023-07-30T08:55:12;2.25;;;1.40;;
15385;SDS011;7791;47.246;9.648;2023-07-30T08:57:50;3.60;;;1.30;;
15385;SDS011;7791;47.246;9.648;2023-07-30T09:00:30;2.78;;;1.73;;
15385;SDS011;7791;47.246;9.648;2023-07-30T09:03:16;3.38;;;1.58;;
15385;SDS011;7791;47.246;9.648;2023-07-30T09:05:59;1.60;;;1.50;;
15385;SDS011;7791;47.246;9.648;2023-07-30T09:08:39;3.20;;;1.35;;
15385;SDS011;7791;47.246;9.648;2023-07-30T09:11:17;1.50;;;1.35;;
15385;SDS011;7791;47.246;9.648;2023-07-30T09:16:35;2.00;;;1.48;;
15385;SDS011;7791;47.246;9.648;2023-07-30T09:19:13;1.92;;;1.45;;
15385;SDS011;7791;47.246;9.648;2023-07-30T09:21:58;2.13;;;1.35;;
15385;SDS011;7791;47.246;9.648;2023-07-30T09:24:41;4.53;;;1.60;;
15385;SDS011;7791;47.246;9.648;2023-07-30T09:27:35;2.15;;;1.48;;
15385;SDS011;7791;47.246;9.648;2023-07-30T09:30:06;1.77;;;1.35;;
15385;SDS011;7791;47.246;9.648;2023-07-30T09:32:55;1.52;;;1.25;;
15385;SDS011;7791;47.246;9.648;2023-07-30T09:35:34;1.85;;;1.30;;
15385;SDS011;7791;47.246;9.648;2023-07-30T09:38:07;2.25;;;1.17;;
15385;SDS011;7791;47.246;9.648;2023-07-30T09:40:37;1.33;;;1.10;;
15385;SDS011;7791;47.246;9.648;2023-07-30T09:43:35;1.58;;;1.10;;
15385;SDS011;7791;47.246;9.648;2023-07-30T09:46:07;3.05;;;1.33;;
15385;SDS011;7791;47.246;9.648;2023-07-30T09:48:46;1.50;;;1.33;;
15385;SDS011;7791;47.246;9.648;2023-07-30T09:51:52;3.53;;;1.50;;
15385;SDS011;7791;47.246;9.648;2023-07-30T09:57:41;1.95;;;1.45;;
15385;SDS011;7791;47.246;9.648;2023-07-30T10:00:17;2.72;;;1.40;;
15385;SDS011;7791;47.246;9.648;2023-07-30T10:02:45;1.83;;;1.38;;
15385;SDS011;7791;47.246;9.648;2023-07-30T10:05:15;1.40;;;1.30;;
15385;SDS011;7791;47.246;9.648;2023-07-30T10:07:57;1.83;;;1.50;;
15385;SDS011;7791;47.246;9.648;2023-07-30T10:10:30;4.57;;;1.17;;
15385;SDS011;7791;47.246;9.648;2023-07-30T10:13:13;2.17;;;1.50;;
15385;SDS011;7791;47.246;9.648;2023-07-30T10:18:45;1.95;;;1.58;;
15385;SDS011;7791;47.246;9.648;2023-07-30T10:21:22;2.17;;;1.48;;
15385;SDS011;7791;47.246;9.648;2023-07-30T10:24:01;2.45;;;1.60;;
15385;SDS011;7791;47.246;9.648;2023-07-30T10:26:33;1.40;;;1.30;;
15385;SDS011;7791;47.246;9.648;2023-07-30T10:29:17;1.80;;;1.50;;
15385;SDS011;7791;47.246;9.648;2023-07-30T10:31:48;1.92;;;1.33;;
15385;SDS011;7791;47.246;9.648;2023-07-30T10:34:17;1.70;;;1.13;;
15385;SDS011;7791;47.246;9.648;2023-07-30T10:36:46;2.08;;;1.70;;
15385;SDS011;7791;47.246;9.648;2023-07-30T10:39:26;2.25;;;1.40;;
15385;SDS011;7791;47.246;9.648;2023-07-30T10:41:53;2.40;;;1.70;;
15385;SDS011;7791;47.246;9.648;2023-07-30T10:56:30;2.70;;;1.55;;
15385;SDS011;7791;47.246;9.648;2023-07-30T10:59:10;2.85;;;1.52;;
15385;SDS011;7791;47.246;9.648;2023-07-30T11:01:47;1.30;;;1.20;;
15385;SDS011;7791;47.246;9.648;2023-07-30T11:04:39;2.20;;;1.57;;
15385;SDS011;7791;47.246;9.648;2023-07-30T11:07:24;5.17;;;2.07;;
15385;SDS011;7791;47.246;9.648;2023-07-30T11:10:03;1.97;;;1.60;;
15385;SDS011;7791;47.246;9.648;2023-07-30T11:12:34;3.53;;;1.67;;
15385;SDS011;7791;47.246;9.648;2023-07-30T11:15:05;1.73;;;1.50;;
15385;SDS011;7791;47.246;9.648;2023-07-30T11:17:52;2.87;;;1.70;;
15385;SDS011;7791;47.246;9.648;2023-07-30T11:20:43;2.83;;;1.50;;
15385;SDS011;7791;47.246;9.648;2023-07-30T11:23:24;5.17;;;2.03;;
15385;SDS011;7791;47.246;9.648;2023-07-30T11:26:12;2.43;;;1.90;;
15385;SDS011;7791;47.246;9.648;2023-07-30T11:29:05;4.83;;;2.33;;
15385;SDS011;7791;47.246;9.648;2023-07-30T11:31:51;3.53;;;1.80;;
15385;SDS011;7791;47.246;9.648;2023-07-30T11:37:16;2.50;;;1.80;;
15385;SDS011;7791;47.246;9.648;2023-07-30T11:39:54;3.03;;;2.27;;
15385;SDS011;7791;47.246;9.648;2023-07-30T11:42:39;2.67;;;2.07;;
15385;SDS011;7791;47.246;9.648;2023-07-30T11:48:22;2.13;;;1.57;;
15385;SDS011;7791;47.246;9.648;2023-07-30T11:51:17;2.85;;;1.33;;
15385;SDS011;7791;47.246;9.648;2023-07-30T11:54:17;1.65;;;1.40;;
15385;SDS011;7791;47.246;9.648;2023-07-30T11:56:54;1.42;;;1.17;;
15385;SDS011;7791;47.246;9.648;2023-07-30T11:59:50;1.63;;;1.10;;
15385;SDS011;7791;47.246;9.648;2023-07-30T12:02:22;0.98;;;0.90;;
15385;SDS011;7791;47.246;9.648;2023-07-30T12:04:56;1.10;;;0.93;;
15385;SDS011;7791;47.246;9.648;2023-07-30T12:07:39;1.73;;;1.27;;
15385;SDS011;7791;47.246;9.648;2023-07-30T12:10:48;1.60;;;1.40;;
15385;SDS011;7791;47.246;9.648;2023-07-30T12:13:20;1.55;;;1.10;;
15385;SDS011;7791;47.246;9.648;2023-07-30T12:16:22;1.90;;;1.17;;
15385;SDS011;7791;47.246;9.648;2023-07-30T12:18:54;1.35;;;1.00;;
15385;SDS011;7791;47.246;9.648;2023-07-30T12:21:33;1.05;;;0.95;;
15385;SDS011;7791;47.246;9.648;2023-07-30T12:24:08;1.08;;;0.95;;
15385;SDS011;7791;47.246;9.648;2023-07-30T12:26:59;1.35;;;1.02;;
15385;SDS011;7791;47.246;9.648;2023-07-30T12:29:56;1.35;;;1.10;;
15385;SDS011;7791;47.246;9.648;2023-07-30T12:32:45;1.00;;;0.90;;
15385;SDS011;7791;47.246;9.648;2023-07-30T12:35:24;1.05;;;0.90;;
15385;SDS011;7791;47.246;9.648;2023-07-30T12:41:06;1.75;;;0.73;;
15385;SDS011;7791;47.246;9.648;2023-07-30T12:43:46;1.20;;;1.05;;
15385;SDS011;7791;47.246;9.648;2023-07-30T12:46:23;1.08;;;0.98;;
15385;SDS011;7791;47.246;9.648;2023-07-30T12:49:10;1.35;;;1.00;;
15385;SDS011;7791;47.246;9.648;2023-07-30T12:52:05;2.15;;;1.30;;
15385;SDS011;7791;47.246;9.648;2023-07-30T12:54:49;1.33;;;0.90;;
15385;SDS011;7791;47.246;9.648;2023-07-30T12:57:31;1.10;;;1.00;;
15385;SDS011;7791;47.246;9.648;2023-07-30T13:00:09;1.40;;;1.05;;
15385;SDS011;7791;47.246;9.648;2023-07-30T13:02:53;1.38;;;1.20;;
15385;SDS011;7791;47.246;9.648;2023-07-30T13:05:42;1.48;;;0.95;;
15385;SDS011;7791;47.246;9.648;2023-07-30T13:08:21;1.63;;;1.05;;
15385;SDS011;7791;47.246;9.648;2023-07-30T13:10:54;1.33;;;1.10;;
15385;SDS011;7791;47.246;9.648;2023-07-30T13:13:31;1.10;;;1.00;;
15385;SDS011;7791;47.246;9.648;2023-07-30T13:19:01;1.35;;;1.10;;
15385;SDS011;7791;47.246;9.648;2023-07-30T13:24:20;2.15;;;1.20;;
15385;SDS011;7791;47.246;9.648;2023-07-30T13:27:14;1.20;;;0.90;;
15385;SDS011;7791;47.246;9.648;2023-07-30T13:30:02;1.60;;;1.27;;
15385;SDS011;7791;47.246;9.648;2023-07-30T13:32:33;1.83;;;1.10;;
15385;SDS011;7791;47.246;9.648;2023-07-30T13:35:02;1.10;;;1.00;;
15385;SDS011;7791;47.246;9.648;2023-07-30T13:43:14;1.35;;;1.10;;
15385;SDS011;7791;47.246;9.648;2023-07-30T13:45:49;3.63;;;1.30;;
15385;SDS011;7791;47.246;9.648;2023-07-30T13:48:14;1.48;;;1.10;;
15385;SDS011;7791;47.246;9.648;2023-07-30T13:50:45;1.70;;;1.30;;
15385;SDS011;7791;47.246;9.648;2023-07-30T13:53:19;1.42;;;1.13;;
15385;SDS011;7791;47.246;9.648;2023-07-30T13:55:52;1.20;;;1.10;;
15385;SDS011;7791;47.246;9.648;2023-07-30T13:58:18;1.20;;;1.10;;
15385;SDS011;7791;47.246;9.648;2023-07-30T14:00:43;1.25;;;1.10;;
15385;SDS011;7791;47.246;9.648;2023-07-30T14:03:11;1.70;;;1.20;;
15385;SDS011;7791;47.246;9.648;2023-07-30T14:06:07;1.50;;;1.15;;
15385;SDS011;7791;47.246;9.648;2023-07-30T14:08:41;1.52;;;1.10;;
15385;SDS011;7791;47.246;9.648;2023-07-30T14:11:11;1.60;;;1.27;;
15385;SDS011;7791;47.246;9.648;2023-07-30T14:13:37;1.40;;;1.27;;
15385;SDS011;7791;47.246;9.648;2023-07-30T14:16:35;2.15;;;1.60;;
15385;SDS011;7791;47.246;9.648;2023-07-30T14:18:57;1.20;;;1.10;;
15385;SDS011;7791;47.246;9.648;2023-07-30T14:24:00;1.92;;;1.15;;
15385;SDS011;7791;47.246;9.648;2023-07-30T14:26:37;3.03;;;1.20;;
15385;SDS011;7791;47.246;9.648;2023-07-30T14:29:07;2.75;;;1.10;;
15385;SDS011;7791;47.246;9.648;2023-07-30T14:31:39;1.40;;;1.10;;
15385;SDS011;7791;47.246;9.648;2023-07-30T14:34:05;2.92;;;1.40;;
15385;SDS011;7791;47.246;9.648;2023-07-30T14:36:37;1.85;;;1.40;;
15385;SDS011;7791;47.246;9.648;2023-07-30T14:39:08;1.63;;;1.20;;
15385;SDS011;7791;47.246;9.648;2023-07-30T14:41:54;1.60;;;1.20;;
15385;SDS011;7791;47.246;9.648;2023-07-30T14:47:21;1.73;;;1.27;;
15385;SDS011;7791;47.246;9.648;2023-07-30T14:50:16;1.70;;;1.02;;
15385;SDS011;7791;47.246;9.648;2023-07-30T14:52:45;1.30;;;1.05;;
15385;SDS011;7791;47.246;9.648;2023-07-30T14:55:22;1.83;;;1.10;;
15385;SDS011;7791;47.246;9.648;2023-07-30T14:58:06;1.08;;;0.98;;
15385;SDS011;7791;47.246;9.648;2023-07-30T15:00:56;1.60;;;1.40;;
15385;SDS011;7791;47.246;9.648;2023-07-30T15:03:35;1.50;;;1.15;;
15385;SDS011;7791;47.246;9.648;2023-07-30T15:06:17;2.45;;;1.48;;
15385;SDS011;7791;47.246;9.648;2023-07-30T15:08:59;2.63;;;1.17;;
15385;SDS011;7791;47.246;9.648;2023-07-30T15:11:46;1.65;;;1.20;;
15385;SDS011;7791;47.246;9.648;2023-07-30T15:14:33;1.70;;;1.20;;
15385;SDS011;7791;47.246;9.648;2023-07-30T15:17:21;1.50;;;1.33;;
15385;SDS011;7791;47.246;9.648;2023-07-30T15:20:00;2.35;;;1.45;;
15385;SDS011;7791;47.246;9.648;2023-07-30T15:22:40;1.83;;;1.23;;
15385;SDS011;7791;47.246;9.648;2023-07-30T15:25:16;1.60;;;1.30;;
15385;SDS011;7791;47.246;9.648;2023-07-30T15:27:54;1.50;;;1.30;;
15385;SDS011;7791;47.246;9.648;2023-07-30T15:30:51;2.03;;;1.30;;
15385;SDS011;7791;47.246;9.648;2023-07-30T15:33:26;1.70;;;1.27;;
15385;SDS011;7791;47.246;9.648;2023-07-30T15:35:58;1.85;;;1.35;;
15385;SDS011;7791;47.246;9.648;2023-07-30T15:38:34;1.70;;;1.40;;
15385;SDS011;7791;47.246;9.648;2023-07-30T15:40:59;2.08;;;1.33;;
15385;SDS011;7791;47.246;9.648;2023-07-30T15:43:25;1.88;;;1.45;;
15385;SDS011;7791;47.246;9.648;2023-07-30T15:45:52;2.10;;;1.50;;
15385;SDS011;7791;47.246;9.648;2023-07-30T15:48:18;1.65;;;1.52;;
15385;SDS011;7791;47.246;9.648;2023-07-30T15:50:44;1.90;;;1.35;;
15385;SDS011;7791;47.246;9.648;2023-07-30T15:53:10;2.88;;;1.50;;
15385;SDS011;7791;47.246;9.648;2023-07-30T15:55:38;1.65;;;1.50;;
15385;SDS011;7791;47.246;9.648;2023-07-30T15:58:04;1.70;;;1.30;;
15385;SDS011;7791;47.246;9.648;2023-07-30T16:00:30;2.10;;;1.60;;
15385;SDS011;7791;47.246;9.648;2023-07-30T16:02:57;4.63;;;1.75;;
15385;SDS011;7791;47.246;9.648;2023-07-30T16:05:22;3.35;;;1.58;;
15385;SDS011;7791;47.246;9.648;2023-07-30T16:07:48;3.65;;;1.50;;
15385;SDS011;7791;47.246;9.648;2023-07-30T16:10:14;2.63;;;1.70;;
15385;SDS011;7791;47.246;9.648;2023-07-30T16:12:40;3.00;;;1.58;;
15385;SDS011;7791;47.246;9.648;2023-07-30T16:15:06;3.58;;;1.50;;
15385;SDS011;7791;47.246;9.648;2023-07-30T16:17:32;2.13;;;1.38;;
15385;SDS011;7791;47.246;9.648;2023-07-30T16:19:59;1.58;;;1.40;;
15385;SDS011;7791;47.246;9.648;2023-07-30T16:22:25;3.17;;;1.38;;
15385;SDS011;7791;47.246;9.648;2023-07-30T16:24:51;3.58;;;1.48;;
15385;SDS011;7791;47.246;9.648;2023-07-30T16:27:16;1.80;;;1.48;;
15385;SDS011;7791;47.246;9.648;2023-07-30T16:29:42;1.52;;;1.35;;
15385;SDS011;7791;47.246;9.648;2023-07-30T16:32:08;2.08;;;1.50;;
15385;SDS011;7791;47.246;9.648;2023-07-30T16:34:34;1.92;;;1.60;;
15385;SDS011;7791;47.246;9.648;2023-07-30T16:37:01;2.28;;;1.60;;
15385;SDS011;7791;47.246;9.648;2023-07-30T16:39:27;3.15;;;2.03;;
15385;SDS011;7791;47.246;9.648;2023-07-30T16:41:53;2.72;;;1.67;;
15385;SDS011;7791;47.246;9.648;2023-07-30T16:44:18;1.88;;;1.67;;
15385;SDS011;7791;47.246;9.648;2023-07-30T16:46:44;1.65;;;1.30;;
15385;SDS011;7791;47.246;9.648;2023-07-30T16:49:11;2.17;;;1.50;;
15385;SDS011;7791;47.246;9.648;2023-07-30T16:51:37;2.08;;;1.80;;
15385;SDS011;7791;47.246;9.648;2023-07-30T16:54:05;3.13;;;1.70;;
15385;SDS011;7791;47.246;9.648;2023-07-30T16:56:37;3.20;;;1.60;;
15385;SDS011;7791;47.246;9.648;2023-07-30T16:59:05;2.15;;;1.35;;
15385;SDS011;7791;47.246;9.648;2023-07-30T17:01:39;3.28;;;1.77;;
15385;SDS011;7791;47.246;9.648;2023-07-30T17:04:07;2.60;;;1.52;;
15385;SDS011;7791;47.246;9.648;2023-07-30T17:06:41;3.72;;;1.60;;
15385;SDS011;7791;47.246;9.648;2023-07-30T17:09:11;2.22;;;1.80;;
15385;SDS011;7791;47.246;9.648;2023-07-30T17:11:41;2.33;;;1.27;;
15385;SDS011;7791;47.246;9.648;2023-07-30T17:14:09;2.33;;;1.45;;
15385;SDS011;7791;47.246;9.648;2023-07-30T17:16:36;2.92;;;2.00;;
15385;SDS011;7791;47.246;9.648;2023-07-30T17:19:02;2.97;;;1.58;;
15385;SDS011;7791;47.246;9.648;2023-07-30T17:21:37;3.90;;;1.50;;
15385;SDS011;7791;47.246;9.648;2023-07-30T17:24:04;2.65;;;1.80;;
15385;SDS011;7791;47.246;9.648;2023-07-30T17:26:32;3.17;;;1.77;;
15385;SDS011;7791;47.246;9.648;2023-07-30T17:28:57;2.13;;;1.73;;
15385;SDS011;7791;47.246;9.648;2023-07-30T17:31:23;2.77;;;1.80;;
15385;SDS011;7791;47.246;9.648;2023-07-30T17:33:49;2.47;;;1.93;;
15385;SDS011;7791;47.246;9.648;2023-07-30T17:36:14;1.98;;;1.48;;
15385;SDS011;7791;47.246;9.648;2023-07-30T17:38:40;3.70;;;1.80;;
15385;SDS011;7791;47.246;9.648;2023-07-30T17:41:06;3.37;;;1.60;;
15385;SDS011;7791;47.246;9.648;2023-07-30T17:43:35;2.60;;;1.77;;
15385;SDS011;7791;47.246;9.648;2023-07-30T17:46:03;3.57;;;2.13;;
15385;SDS011;7791;47.246;9.648;2023-07-30T17:48:36;4.37;;;1.70;;
15385;SDS011;7791;47.246;9.648;2023-07-30T17:51:02;4.33;;;1.93;;
15385;SDS011;7791;47.246;9.648;2023-07-30T17:53:29;3.00;;;2.00;;
15385;SDS011;7791;47.246;9.648;2023-07-30T17:55:55;1.93;;;1.50;;
15385;SDS011;7791;47.246;9.648;2023-07-30T17:58:24;3.10;;;1.60;;
15385;SDS011;7791;47.246;9.648;2023-07-30T18:00:54;3.00;;;1.90;;
15385;SDS011;7791;47.246;9.648;2023-07-30T18:03:20;3.70;;;1.90;;
15385;SDS011;7791;47.246;9.648;2023-07-30T18:05:45;4.53;;;1.97;;
15385;SDS011;7791;47.246;9.648;2023-07-30T18:08:14;2.70;;;1.77;;